Kensett, Iowa
Current Conditions -  °F | °C
As of 10:53 AM on Thursday 30 Oct 2014 (Local Time) from KMCW Reporting Station
Overcast Overcast  
Wind Chill: 42°   Ceiling: 6000
Heat Index: 45°   Visibility: 10mi
Dew Point: 38°   Wind: 6mph
Humidity: 76%   Direction: 140°SE
Pressure: 30.06"   Gusts: NA
Location:  43.35°N, 93.21°W
Report Text: KMCW 301553Z AUTO 14005KT 10SM OVC060 07/03 A3006 RMK AO2 SLP185 T00720033
Loading
Personal Weather Stations






























Interactive Weather Map
Tropical Storm Tracking
New forecast layout! Learn more

10-Day Weather Forecast

Advertisements
Track Severe Weather on mobile